createdAt,value
2019-01-05T00:02:26.637Z,71.23
2019-01-05T00:07:22.899Z,71.76
2019-01-05T00:12:30.841Z,71.77
2019-01-05T00:17:25.655Z,72.06
2019-01-05T00:22:25.225Z,71.98
2019-01-05T00:27:27.899Z,71.78
2019-01-05T00:32:27.711Z,72.09
2019-01-05T00:37:24.077Z,72.14
2019-01-05T00:42:24.123Z,73.10
2019-01-05T00:47:23.362Z,73.17
2019-01-05T00:52:35.503Z,73.29
2019-01-05T00:57:50.855Z,73.58
2019-01-05T01:02:56.369Z,74.33
2019-01-05T01:07:55.410Z,74.27
2019-01-05T01:12:54.513Z,74.00
2019-01-05T01:18:00.214Z,73.78
2019-01-05T01:23:00.558Z,73.77
2019-01-05T01:28:13.090Z,73.97
2019-01-05T01:33:13.190Z,73.18
2019-01-05T01:38:25.385Z,73.67
2019-01-05T01:43:30.496Z,73.90
2019-01-05T01:48:35.794Z,73.29
2019-01-05T01:53:32.557Z,73.73
2019-01-05T01:58:35.866Z,74.46
2019-01-05T02:03:32.262Z,74.64
2019-01-05T02:08:44.311Z,74.67
2019-01-05T02:13:44.460Z,74.45
2019-01-05T02:18:58.222Z,74.04
2019-01-05T02:24:22.726Z,74.49
2019-01-05T02:30:06.116Z,73.93
2019-01-05T02:35:31.645Z,74.59
2019-01-05T02:41:29.574Z,74.46
2019-01-05T02:46:48.831Z,74.63
2019-01-05T02:52:37.304Z,74.51
2019-01-05T02:57:55.679Z,74.42
2019-01-05T03:03:30.741Z,73.76
2019-01-05T03:08:51.453Z,73.77
2019-01-05T03:14:25.094Z,73.33
2019-01-05T03:19:41.838Z,72.15
2019-01-05T03:25:20.896Z,72.30
2019-01-05T03:30:48.165Z,72.26
2019-01-05T03:36:21.108Z,72.37
2019-01-05T03:42:21.499Z,72.04
2019-01-05T03:47:47.260Z,72.40
2019-01-05T03:53:13.180Z,72.53
2019-01-05T03:58:49.383Z,72.58
2019-01-05T04:04:21.517Z,72.86
2019-01-05T04:10:00.743Z,72.10
2019-01-05T04:15:44.236Z,72.04
2019-01-05T04:21:06.520Z,73.13
2019-01-05T04:26:36.138Z,72.88
2019-01-05T04:31:58.383Z,73.05
2019-01-05T04:37:20.019Z,73.49
2019-01-05T04:43:12.686Z,73.75
2019-01-05T04:48:47.084Z,73.42
2019-01-05T04:54:02.306Z,72.72
2019-01-05T04:59:25.191Z,72.52
2019-01-05T05:05:05.994Z,72.50
2019-01-05T05:10:43.772Z,72.48
2019-01-05T05:16:22.808Z,72.32
2019-01-05T05:22:02.842Z,72.68
2019-01-05T05:27:54.206Z,72.70
2019-01-05T05:33:21.692Z,72.83
2019-01-05T05:39:00.749Z,72.27
2019-01-05T05:44:25.101Z,71.72
2019-01-05T05:50:05.569Z,71.67
2019-01-05T05:55:30.109Z,70.83
2019-01-05T06:01:06.277Z,69.98
2019-01-05T06:06:30.834Z,69.82
2019-01-05T06:12:26.982Z,70.56
2019-01-05T06:17:43.585Z,71.60
2019-01-05T06:23:22.399Z,73.52
2019-01-05T06:29:02.823Z,73.96
2019-01-05T06:34:22.727Z,75.53
2019-01-05T06:40:05.167Z,77.19
2019-01-05T06:45:47.186Z,78.59
2019-01-05T06:51:18.365Z,79.16
2019-01-05T06:57:00.937Z,82.07
2019-01-05T07:02:31.128Z,83.80
2019-01-05T07:08:37.274Z,84.98
2019-01-05T07:14:04.791Z,84.42
2019-01-05T07:19:32.227Z,82.93
2019-01-05T07:25:13.188Z,82.53
2019-01-05T07:31:08.686Z,82.81
2019-01-05T07:36:50.657Z,82.97
2019-01-05T07:42:52.186Z,83.08
2019-01-05T07:49:00.373Z,82.30
2019-01-05T07:54:24.602Z,81.41
2019-01-05T08:00:07.016Z,82.60
2019-01-05T08:05:45.836Z,83.12
2019-01-05T08:11:10.802Z,83.25
2019-01-05T08:16:51.722Z,82.37
2019-01-05T08:22:26.776Z,82.91
2019-01-05T08:28:17.846Z,83.17
2019-01-05T08:34:21.424Z,86.04
2019-01-05T08:40:06.433Z,85.23
2019-01-05T08:45:51.818Z,86.04
2019-01-05T08:51:16.369Z,86.66
2019-01-05T08:57:05.896Z,87.05
2019-01-05T09:02:27.604Z,87.46
2019-01-05T09:08:01.758Z,87.04
2019-01-05T09:13:19.833Z,85.95
2019-01-05T09:18:52.685Z,85.39
2019-01-05T09:24:39.771Z,84.42
2019-01-05T09:30:11.750Z,84.13
2019-01-05T09:35:54.913Z,83.36
2019-01-05T09:41:50.687Z,83.70
2019-01-05T09:47:12.178Z,82.79
2019-01-05T09:52:51.175Z,83.04
2019-01-05T09:58:45.783Z,83.67
2019-01-05T10:04:16.049Z,83.17
2019-01-05T10:10:13.574Z,82.93
2019-01-05T10:15:37.750Z,83.22
2019-01-05T10:21:15.353Z,84.56
2019-01-05T10:27:00.555Z,85.02
2019-01-05T10:32:33.548Z,84.71
2019-01-05T10:38:02.797Z,84.57
2019-01-05T10:43:23.255Z,85.85
2019-01-05T10:49:04.908Z,86.44
2019-01-05T10:54:44.057Z,86.57
2019-01-05T11:00:11.132Z,86.34
2019-01-05T11:05:35.428Z,85.82
2019-01-05T11:11:28.092Z,86.10
2019-01-05T11:16:47.496Z,85.99
2019-01-05T11:22:06.975Z,86.25
2019-01-05T11:27:49.324Z,86.80
2019-01-05T11:33:16.712Z,87.31
2019-01-05T11:38:35.178Z,87.01
2019-01-05T11:43:44.726Z,87.26
2019-01-05T11:48:57.068Z,86.75
2019-01-05T11:54:34.725Z,86.34
2019-01-05T12:00:21.234Z,85.28
2019-01-05T12:05:46.985Z,84.74
2019-01-05T12:11:19.055Z,84.62
2019-01-05T12:17:13.279Z,84.81
2019-01-05T12:22:49.374Z,85.51
2019-01-05T12:27:58.958Z,84.87
2019-01-05T12:33:48.819Z,86.02
2019-01-05T12:39:31.507Z,85.87
2019-01-05T12:44:43.699Z,85.78
2019-01-05T12:50:02.120Z,84.29
2019-01-05T12:55:51.504Z,84.88
2019-01-05T13:01:54.912Z,84.94
2019-01-05T13:07:34.612Z,84.79
2019-01-05T13:13:22.037Z,83.43
2019-01-05T13:18:37.049Z,83.86
2019-01-05T13:24:30.258Z,83.17
2019-01-05T13:30:10.684Z,83.61
2019-01-05T13:35:42.541Z,84.23
2019-01-05T13:41:02.094Z,84.36
2019-01-05T13:46:23.360Z,84.43
2019-01-05T13:51:29.885Z,85.20
2019-01-05T13:56:26.673Z,86.20
2019-01-05T14:01:37.751Z,86.04
2019-01-05T14:06:34.015Z,85.37
2019-01-05T14:11:42.270Z,85.16
2019-01-05T14:16:44.322Z,85.53
2019-01-05T14:21:55.570Z,85.92
2019-01-05T14:26:51.792Z,85.70
2019-01-05T14:31:53.606Z,85.61
2019-01-05T14:36:59.491Z,85.48
2019-01-05T14:42:07.346Z,85.99
2019-01-05T14:47:18.683Z,85.55
2019-01-05T14:52:20.602Z,86.03
2019-01-05T14:57:32.449Z,85.90
2019-01-05T15:02:40.486Z,85.71
2019-01-05T15:07:36.773Z,85.67
2019-01-05T15:12:48.038Z,85.89
2019-01-05T15:18:00.150Z,85.18
2019-01-05T15:22:54.538Z,85.69
2019-01-05T15:27:50.765Z,85.61
2019-01-05T15:32:52.791Z,85.71
2019-01-05T15:37:54.682Z,86.22
2019-01-05T15:42:50.921Z,86.47
2019-01-05T15:47:47.158Z,86.65
2019-01-05T15:52:44.242Z,86.88
2019-01-05T15:57:56.056Z,86.51
2019-01-05T16:02:50.447Z,86.14
2019-01-05T16:10:35.869Z,85.52
2019-01-05T16:15:34.864Z,85.56
2019-01-05T16:20:37.976Z,85.79
2019-01-05T16:25:34.229Z,86.09
2019-01-05T16:30:42.508Z,85.68
2019-01-05T16:35:38.770Z,86.13
2019-01-05T16:40:50.994Z,86.04
2019-01-05T16:45:49.653Z,85.94
2019-01-05T16:50:52.097Z,85.86
2019-01-05T16:55:54.896Z,86.28
2019-01-05T17:00:56.587Z,86.51
2019-01-05T17:06:09.044Z,85.70
2019-01-05T17:11:23.380Z,85.28
2019-01-05T17:16:19.623Z,84.56
2019-01-05T17:21:30.425Z,84.76
2019-01-05T17:26:35.942Z,84.73
2019-01-05T17:31:32.210Z,84.96
2019-01-05T17:36:26.566Z,85.65
2019-01-05T17:41:28.552Z,85.79
2019-01-05T17:46:27.205Z,86.08
2019-01-05T17:51:25.875Z,86.03
2019-01-05T17:56:22.169Z,85.85
2019-01-05T18:01:36.592Z,86.21
2019-01-05T18:06:33.542Z,86.47
2019-01-05T18:11:33.027Z,86.32
2019-01-05T18:16:31.991Z,86.54
2019-01-05T18:21:28.249Z,86.71
2019-01-05T18:26:39.154Z,86.97
2019-01-05T18:31:51.459Z,86.96
2019-01-05T18:36:50.433Z,87.33
2019-01-05T18:41:58.395Z,87.33
2019-01-05T18:47:10.792Z,87.36
2019-01-05T18:52:24.963Z,87.49
2019-01-05T18:57:24.146Z,87.32
2019-01-05T19:02:32.380Z,86.91
2019-01-05T19:07:31.480Z,87.06
2019-01-05T19:12:27.825Z,86.86
2019-01-05T19:17:42.402Z,86.85
2019-01-05T19:22:47.323Z,86.58
2019-01-05T19:27:59.574Z,86.18
2019-01-05T19:33:08.074Z,86.61
2019-01-05T19:38:19.557Z,86.64
2019-01-05T19:43:16.741Z,86.46
2019-01-05T19:48:18.950Z,85.88
2019-01-05T19:53:18.186Z,85.70
2019-01-05T19:58:17.224Z,85.94
2019-01-05T20:03:29.768Z,86.17
2019-01-05T20:08:29.753Z,86.70
2019-01-05T20:13:31.701Z,87.14
2019-01-05T20:18:31.769Z,87.28
2019-01-05T20:23:43.745Z,87.38
2019-01-05T20:28:38.137Z,87.22
2019-01-05T20:33:47.412Z,87.02
2019-01-05T20:38:58.899Z,87.23
2019-01-05T20:43:57.874Z,87.33
2019-01-05T20:49:10.383Z,86.31
2019-01-05T20:54:09.343Z,86.60
2019-01-05T20:59:14.449Z,86.30
2019-01-05T21:04:22.676Z,86.60
2019-01-05T21:09:30.830Z,86.70
2019-01-05T21:14:29.777Z,86.94
2019-01-05T21:19:26.043Z,86.87
2019-01-05T21:24:33.976Z,87.54
2019-01-05T21:29:45.512Z,87.74
2019-01-05T21:34:57.429Z,86.88
2019-01-05T21:40:08.722Z,86.58
2019-01-05T21:45:20.776Z,86.68
2019-01-05T21:50:17.005Z,87.10
2019-01-05T21:55:29.286Z,87.61
2019-01-05T22:00:41.857Z,86.62
2019-01-05T22:05:38.126Z,86.89
2019-01-05T22:10:50.509Z,86.83
2019-01-05T22:15:46.782Z,86.85
2019-01-05T22:20:45.926Z,86.39
2019-01-05T22:25:58.509Z,86.93
2019-01-05T22:30:54.782Z,86.45
2019-01-05T22:35:51.116Z,85.43
2019-01-05T22:40:47.372Z,85.74
2019-01-05T22:45:46.127Z,85.67
2019-01-05T22:50:47.813Z,85.98
2019-01-05T22:56:00.265Z,86.09
2019-01-05T23:01:02.376Z,85.74
2019-01-05T23:06:07.629Z,85.37
2019-01-05T23:11:19.057Z,85.44
2019-01-05T23:16:15.281Z,85.06
2019-01-05T23:21:14.310Z,85.20
2019-01-05T23:26:13.275Z,85.23
2019-01-05T23:31:22.671Z,85.40
2019-01-05T23:36:35.804Z,84.47
2019-01-05T23:41:32.662Z,83.95
2019-01-05T23:46:44.649Z,84.74
2019-01-05T23:51:43.847Z,84.96
2019-01-05T23:56:40.100Z,84.84
